Time;durP1;ratioP1;P1;durP2;ratioP2;P2;SDS_P1;SDS_P2;PMS_P1;PMS_P2;Temp;Humidity;BMP_temperature;BMP_pressure;BME280_temperature;BME280_humidity;BME280_pressure;Samples;Min_cycle;Max_cycle;Signal;HPM_P1;HPM_P2
2022/05/19 00:07:50;;;;;;;4.47;2.20;;;;;;;21.63;31.28;101522.03;20768996;27;98736;-76
2022/05/19 00:17:51;;;;;;;3.50;2.38;;;;;;;21.57;31.63;101523.28;20736076;27;100648;-76
2022/05/19 00:27:52;;;;;;;4.07;1.90;;;;;;;21.52;31.52;101522.66;20754948;27;97107;-77
2022/05/19 00:37:52;;;;;;;5.20;2.03;;;;;;;21.50;31.85;101535.09;20751036;27;98592;-77
2022/05/19 00:48:08;;;;;;;3.80;1.92;;;;;;;21.39;31.71;101536.56;20757404;27;97773;-76
2022/05/19 00:58:19;;;;;;;4.13;2.10;;;;;;;21.32;32.06;101540.50;20752865;27;100927;-76
2022/05/19 01:08:43;;;;;;;3.75;1.85;;;;;;;21.25;32.12;101539.19;20758272;27;98156;-78
2022/05/19 01:18:43;;;;;;;2.80;1.80;;;;;;;21.21;32.02;101535.03;20732321;27;97092;-76
2022/05/19 01:28:46;;;;;;;4.30;2.22;;;;;;;21.14;32.35;101536.34;20743049;27;98405;-77
2022/05/19 01:38:55;;;;;;;3.67;2.10;;;;;;;21.04;32.72;101536.03;20743848;27;98749;-77
2022/05/19 01:49:02;;;;;;;3.40;2.15;;;;;;;21.01;33.10;101531.81;20757474;27;101080;-77
2022/05/19 01:59:09;;;;;;;4.88;2.05;;;;;;;20.94;33.03;101535.72;20764353;27;97839;-76
2022/05/19 02:09:16;;;;;;;2.97;2.10;;;;;;;20.90;33.15;101536.84;20766057;27;98778;-77
2022/05/19 02:19:23;;;;;;;5.10;2.20;;;;;;;20.79;33.43;101542.75;20765668;27;97757;-76
2022/05/19 02:29:26;;;;;;;4.28;1.95;;;;;;;20.76;33.60;101546.41;20768010;27;101099;-76
2022/05/19 02:39:26;;;;;;;4.70;2.13;;;;;;;20.70;33.27;101557.25;20764060;27;99450;-76
2022/05/19 02:49:27;;;;;;;4.18;1.92;;;;;;;20.61;33.52;101565.66;20768371;27;100365;-77
2022/05/19 02:59:27;;;;;;;7.10;2.55;;;;;;;20.54;33.62;101572.19;20779959;27;97323;-76
2022/05/19 03:09:29;;;;;;;3.95;2.00;;;;;;;20.51;33.71;101578.47;20775646;27;98581;-76
2022/05/19 03:19:29;;;;;;;3.75;2.10;;;;;;;20.44;33.78;101571.84;20762365;27;97790;-75
2022/05/19 03:29:30;;;;;;;4.47;2.00;;;;;;;20.40;33.64;101572.97;20757313;27;97913;-76
2022/05/19 03:39:31;;;;;;;5.55;2.10;;;;;;;20.35;33.71;101594.25;20755563;27;100820;-76
2022/05/19 03:49:33;;;;;;;9.60;1.92;;;;;;;20.30;33.62;101602.41;20777280;27;98577;-76
2022/05/19 03:59:34;;;;;;;7.88;2.25;;;;;;;20.30;33.77;101612.91;20768681;27;98355;-76
2022/05/19 04:09:34;;;;;;;4.28;1.92;;;;;;;20.28;33.78;101617.41;20755483;27;97536;-76
2022/05/19 04:19:36;;;;;;;5.60;1.77;;;;;;;20.18;34.16;101620.59;20740664;27;97679;-83
2022/05/19 04:29:37;;;;;;;4.40;1.80;;;;;;;20.55;35.01;101624.72;20745341;27;98165;-77
2022/05/19 04:39:38;;;;;;;5.93;2.00;;;;;;;20.76;34.78;101635.88;20768502;27;99631;-75
2022/05/19 04:49:39;;;;;;;6.05;1.70;;;;;;;20.94;35.03;101620.81;20731414;27;97831;-74
2022/05/19 04:59:41;;;;;;;13.93;1.90;;;;;;;21.10;35.36;101626.09;20742169;27;97550;-73
2022/05/19 05:09:41;;;;;;;10.97;3.13;;;;;;;21.26;34.90;101623.41;20745662;27;101740;-72
2022/05/19 05:19:42;;;;;;;11.52;2.50;;;;;;;21.21;34.36;101638.59;20738452;27;99149;-74
2022/05/19 05:29:42;;;;;;;12.57;2.42;;;;;;;21.35;34.20;101639.59;20728545;27;99196;-75
2022/05/19 05:39:44;;;;;;;9.27;2.20;;;;;;;21.24;33.19;101642.88;20743393;27;100936;-74
2022/05/19 05:49:45;;;;;;;5.97;1.95;;;;;;;21.37;32.77;101643.88;20761283;27;97818;-75
2022/05/19 05:59:45;;;;;;;6.00;1.98;;;;;;;21.47;32.19;101653.84;20774625;27;98275;-75
2022/05/19 06:09:46;;;;;;;8.93;1.75;;;;;;;21.53;32.56;101646.44;20761742;27;98464;-76
2022/05/19 06:19:46;;;;;;;3.50;1.58;;;;;;;21.61;32.70;101639.91;20785080;27;97893;-75
2022/05/19 06:29:47;;;;;;;3.60;2.10;;;;;;;21.68;31.62;101643.84;20783153;27;97020;-75
2022/05/19 06:39:47;;;;;;;2.60;1.77;;;;;;;21.73;32.05;101649.72;20799860;27;96766;-75
2022/05/19 06:49:52;;;;;;;4.85;1.90;;;;;;;21.79;32.02;101651.97;20793524;27;98767;-75
2022/05/19 06:59:53;;;;;;;8.98;2.13;;;;;;;21.86;31.59;101649.81;20794834;27;96996;-75
2022/05/19 07:09:54;;;;;;;6.03;2.80;;;;;;;21.79;31.51;101645.84;20795087;27;97398;-75
2022/05/19 07:30:14;;;;;;;4.85;1.98;;;;;;;21.94;30.05;101649.38;20791872;27;96917;-76
2022/05/19 07:40:16;;;;;;;6.20;1.92;;;;;;;21.99;29.38;101639.38;20790121;27;102383;-74
2022/05/19 07:50:16;;;;;;;3.88;1.55;;;;;;;22.03;29.04;101628.56;20811552;27;97312;-73
2022/05/19 08:00:17;;;;;;;5.80;2.00;;;;;;;22.10;28.34;101630.81;20782582;27;97406;-74
2022/05/19 08:10:24;;;;;;;3.70;1.60;;;;;;;22.13;28.13;101636.75;20784476;27;97981;-73
2022/05/19 08:20:24;;;;;;;5.45;1.50;;;;;;;22.19;27.67;101624.94;20766191;27;97446;-74
2022/05/19 08:30:26;;;;;;;2.92;1.40;;;;;;;22.24;27.99;101622.88;20779742;27;97837;-74
2022/05/19 08:40:27;;;;;;;3.67;1.13;;;;;;;22.34;28.14;101626.63;20795376;27;98698;-73
2022/05/19 08:50:53;;;;;;;3.72;1.60;;;;;;;22.41;28.79;101621.88;20805602;27;99705;-74
2022/05/19 09:01:17;;;;;;;2.80;1.50;;;;;;;22.51;28.43;101615.03;20781358;27;97147;-74
2022/05/19 09:11:27;;;;;;;4.95;1.67;;;;;;;22.61;29.48;101610.03;20778372;27;97967;-74
2022/05/19 09:21:27;;;;;;;3.05;1.95;;;;;;;22.71;28.27;101611.09;20798707;27;97094;-74
2022/05/19 09:31:35;;;;;;;4.72;1.50;;;;;;;22.85;29.11;101602.31;20773153;27;101627;-74
2022/05/19 09:41:41;;;;;;;4.25;1.35;;;;;;;22.86;29.75;101596.09;20779767;27;103289;-75
2022/05/19 09:51:48;;;;;;;2.70;1.60;;;;;;;22.97;29.48;101583.94;20797460;27;97666;-75
2022/05/19 10:01:50;;;;;;;3.10;1.40;;;;;;;23.03;28.44;101573.84;20794717;27;99209;-74
2022/05/19 10:12:00;;;;;;;1.83;1.50;;;;;;;23.11;28.79;101554.81;20808711;27;97555;-74
2022/05/19 10:22:32;;;;;;;4.20;1.88;;;;;;;23.23;28.42;101558.47;20807739;27;97741;-75
2022/05/19 10:32:53;;;;;;;4.20;1.50;;;;;;;23.33;28.30;101548.94;20795702;27;98378;-75
2022/05/19 10:43:04;;;;;;;7.20;1.85;;;;;;;23.39;25.51;101538.91;20758902;27;97519;-75
2022/05/19 10:53:25;;;;;;;2.70;1.10;;;;;;;23.36;22.01;101516.19;20787287;27;97380;-73
2022/05/19 11:03:39;;;;;;;1.48;1.10;;;;;;;23.42;24.61;101501.69;20795098;27;97975;-75
2022/05/19 11:13:55;;;;;;;1.60;0.80;;;;;;;23.50;23.64;101494.09;20788401;27;100002;-75
2022/05/19 11:23:56;;;;;;;2.33;1.05;;;;;;;23.57;22.65;101476.00;20751118;27;99143;-75
2022/05/19 11:33:59;;;;;;;1.58;1.00;;;;;;;23.69;22.94;101474.28;20793699;27;97521;-75
2022/05/19 11:44:18;;;;;;;1.75;0.80;;;;;;;23.76;23.73;101449.91;20770576;27;100241;-75
2022/05/19 12:05:10;;;;;;;0.80;0.80;;;;;;;23.91;22.33;101424.19;20788918;27;99580;-74
2022/05/19 12:15:36;;;;;;;6.05;1.10;;;;;;;24.04;22.24;101415.38;20751457;27;97354;-75
2022/05/19 12:25:38;;;;;;;3.25;1.10;;;;;;;24.10;22.33;101391.94;20772452;27;96929;-75
2022/05/19 12:35:39;;;;;;;3.42;0.80;;;;;;;24.24;22.17;101395.38;20780433;27;97223;-75
2022/05/19 12:45:52;;;;;;;1.00;0.83;;;;;;;24.34;21.51;101395.53;20760591;27;98549;-75
2022/05/19 12:55:55;;;;;;;2.58;1.08;;;;;;;24.38;21.25;101378.47;20787821;27;97938;-73
2022/05/19 13:06:02;;;;;;;2.00;1.00;;;;;;;24.47;21.65;101369.81;20786832;27;97389;-76
2022/05/19 13:16:32;;;;;;;3.40;1.00;;;;;;;24.55;21.23;101361.28;20763240;27;97028;-75
2022/05/19 13:26:41;;;;;;;4.68;0.98;;;;;;;24.61;21.25;101361.66;20780529;27;97425;-75
2022/05/19 13:36:41;;;;;;;1.95;0.90;;;;;;;24.69;21.69;101349.66;20755639;27;98375;-76
2022/05/19 13:46:42;;;;;;;2.20;0.88;;;;;;;24.75;21.91;101347.38;20758885;27;101320;-76
2022/05/19 13:56:46;;;;;;;1.60;0.93;;;;;;;24.82;20.83;101336.31;20759414;27;101556;-76
2022/05/19 14:06:48;;;;;;;6.82;1.20;;;;;;;24.89;21.38;101329.56;20743207;27;97717;-75
2022/05/19 14:16:49;;;;;;;3.53;1.02;;;;;;;24.98;21.48;101318.25;20761030;27;98530;-75
2022/05/19 14:26:55;;;;;;;7.60;1.90;;;;;;;25.06;22.91;101305.22;20752199;27;99257;-76
2022/05/19 14:37:00;;;;;;;9.27;1.58;;;;;;;25.11;24.02;101294.28;20773163;27;97150;-75
2022/05/19 14:47:06;;;;;;;3.80;1.50;;;;;;;25.17;22.52;101271.72;20749611;27;98175;-75
2022/05/19 14:57:12;;;;;;;4.97;1.30;;;;;;;25.22;24.48;101272.22;20770338;27;97448;-74
2022/05/19 15:07:53;;;;;;;5.75;1.20;;;;;;;25.20;23.68;101269.66;20769004;27;97309;-75
2022/05/19 15:17:55;;;;;;;3.75;1.10;;;;;;;25.19;23.66;101269.78;20797575;27;101038;-76
2022/05/19 15:27:56;;;;;;;2.70;0.97;;;;;;;25.21;23.08;101255.44;20795762;27;98779;-75
2022/05/19 15:37:57;;;;;;;1.47;1.07;;;;;;;25.18;22.71;101231.84;20638766;28;97520;-74
2022/05/19 15:47:59;;;;;;;4.77;0.90;;;;;;;25.19;23.41;101228.22;20627876;28;97355;-73
2022/05/19 15:58:00;;;;;;;2.75;1.00;;;;;;;25.19;23.43;101219.44;20632851;28;96968;-74
2022/05/19 16:08:01;;;;;;;5.05;1.15;;;;;;;25.16;22.73;101214.38;20601313;28;99813;-74
2022/05/19 16:18:01;;;;;;;1.67;1.00;;;;;;;25.14;22.79;101208.38;20623370;28;99881;-74
2022/05/19 16:28:02;;;;;;;1.63;1.00;;;;;;;25.10;22.20;101205.13;20710831;27;97147;-74
2022/05/19 16:38:07;;;;;;;4.00;1.03;;;;;;;25.15;22.63;101204.75;20726879;28;99873;-74
2022/05/19 16:48:08;;;;;;;5.88;1.10;;;;;;;25.11;23.63;101190.91;20691767;27;97889;-75
2022/05/19 16:58:11;;;;;;;1.60;1.10;;;;;;;25.06;21.69;101193.06;20699055;27;97086;-76
2022/05/19 17:08:13;;;;;;;12.20;7.15;;;;;;;25.02;21.90;101187.19;20679640;27;100451;-72
2022/05/19 17:18:15;;;;;;;5.37;1.50;;;;;;;24.96;20.22;101184.22;20671602;27;96933;-72
2022/05/19 17:28:16;;;;;;;4.05;1.77;;;;;;;24.86;19.87;101182.28;20699453;27;98272;-72
2022/05/19 17:38:17;;;;;;;2.50;1.33;;;;;;;24.81;20.02;101183.66;20688175;27;97264;-73
2022/05/19 17:48:17;;;;;;;6.13;1.83;;;;;;;24.69;20.07;101190.75;20690939;27;96940;-73
2022/05/19 17:58:18;;;;;;;4.13;1.50;;;;;;;24.60;20.31;101184.38;20700240;27;100212;-73
2022/05/19 18:08:19;;;;;;;5.45;1.33;;;;;;;24.50;21.18;101184.25;20754045;27;98373;-76
2022/05/19 18:18:23;;;;;;;3.90;1.30;;;;;;;24.48;21.80;101188.00;20792567;27;97666;-78
2022/05/19 18:28:25;;;;;;;10.23;1.70;;;;;;;24.40;23.46;101197.38;20782867;27;98209;-77
2022/05/19 18:38:27;;;;;;;5.35;1.33;;;;;;;24.56;24.15;101193.50;20792177;27;97047;-77
2022/05/19 18:48:29;;;;;;;10.48;1.58;;;;;;;24.61;24.81;101196.66;20771494;27;104656;-77
2022/05/19 18:58:30;;;;;;;3.73;1.57;;;;;;;24.64;25.41;101200.84;20755417;27;101303;-76
2022/05/19 19:08:32;;;;;;;4.90;1.30;;;;;;;24.66;26.25;101197.16;20782468;27;101176;-78
2022/05/19 19:18:35;;;;;;;6.40;1.60;;;;;;;24.66;26.33;101199.81;20746082;27;97943;-79
2022/05/19 19:28:35;;;;;;;7.15;1.65;;;;;;;24.64;26.35;101201.69;20753009;27;97668;-79
2022/05/19 19:38:36;;;;;;;3.78;1.30;;;;;;;24.59;26.11;101198.56;20783651;27;97935;-78
2022/05/19 19:48:37;;;;;;;4.37;1.70;;;;;;;24.55;26.48;101207.72;20764158;27;97721;-78
2022/05/19 19:58:40;;;;;;;3.63;1.50;;;;;;;24.51;26.29;101214.22;20705751;27;98651;-79
2022/05/19 20:08:41;;;;;;;4.32;1.55;;;;;;;24.44;26.42;101216.50;20672241;27;100727;-78
2022/05/19 20:18:46;;;;;;;3.85;1.40;;;;;;;24.36;26.21;101209.16;20724927;27;97869;-79
2022/05/19 20:28:48;;;;;;;2.42;1.40;;;;;;;24.33;26.43;101200.59;20748372;27;100721;-79
2022/05/19 20:38:49;;;;;;;2.42;1.48;;;;;;;24.29;27.02;101206.16;20750859;27;100931;-79
2022/05/19 20:48:52;;;;;;;1.92;1.58;;;;;;;24.27;27.45;101205.44;20745387;27;97678;-79
2022/05/19 20:58:56;;;;;;;2.53;1.65;;;;;;;24.22;27.67;101198.81;20730600;27;97834;-78
2022/05/19 21:08:56;;;;;;;2.25;1.60;;;;;;;24.19;27.59;101209.63;20751268;27;97530;-79
2022/05/19 21:18:58;;;;;;;3.25;1.60;;;;;;;24.17;27.67;101203.59;20756088;27;97953;-80
2022/05/19 21:28:58;;;;;;;2.33;1.40;;;;;;;24.13;27.74;101213.59;20724829;27;98953;-79
2022/05/19 21:39:00;;;;;;;4.32;1.35;;;;;;;24.09;27.85;101204.22;20768026;27;97285;-78
2022/05/19 21:49:00;;;;;;;2.43;1.40;;;;;;;24.08;28.03;101199.88;20738775;27;97955;-78
2022/05/19 21:59:01;;;;;;;2.33;1.30;;;;;;;24.04;28.05;101193.97;20763835;27;97762;-78
2022/05/19 22:09:03;;;;;;;3.83;1.70;;;;;;;24.02;28.31;101187.94;20735302;27;97231;-79
2022/05/19 22:19:03;;;;;;;2.67;1.63;;;;;;;23.97;28.48;101183.03;20744721;27;100351;-79
2022/05/19 22:29:04;;;;;;;3.13;1.73;;;;;;;23.95;28.69;101197.34;20729484;27;101268;-79
2022/05/19 22:39:06;;;;;;;2.10;1.60;;;;;;;23.92;28.68;101192.25;20748022;27;97278;-79
2022/05/19 22:49:07;;;;;;;3.47;1.90;;;;;;;23.89;28.76;101176.59;20750698;27;101584;-79
2022/05/19 22:59:08;;;;;;;3.87;1.57;;;;;;;23.86;29.13;101185.63;20728030;27;98227;-78
2022/05/19 23:09:08;;;;;;;4.22;2.17;;;;;;;23.84;29.25;101179.63;20751130;27;98416;-79
2022/05/19 23:19:12;;;;;;;3.13;1.98;;;;;;;23.81;29.20;101167.47;20740185;27;98828;-78
2022/05/19 23:29:12;;;;;;;4.40;1.70;;;;;;;23.80;29.28;101172.84;20753823;27;100298;-78
2022/05/19 23:39:12;;;;;;;4.95;2.05;;;;;;;23.76;29.69;101166.97;20744215;27;97841;-79
2022/05/19 23:49:13;;;;;;;2.95;1.98;;;;;;;23.72;29.80;101162.06;20757547;27;99252;-79
2022/05/19 23:59:13;;;;;;;5.97;2.00;;;;;;;23.70;29.86;101161.31;20763622;27;98911;-79
